KTYS Airport (Mc Ghee Tyson) Information

FAA: TYS - ICAO: KTYS

KTYS Airport Location

State Tennessee
County Blount
City Knoxville
KTYS Airport is 10 miles south of Knoxville, TN.
Latitude 35-48-33.7459N
Longitude 083-59-43.1572W
Elevation 979ft

KTYS Airport METARs

METAR KTYS 262153Z 03003KT 10SM CLR 06/M07 A3011 RMK AO2 SLP200 T00561072
Altimeter 30.11"
Temperature 5.6°C (42.1°F)
Wind 30° at 3KT
Clouds Skies are clear.
Visibility 10.0mi
Time observed: 2021-11-26T21:53:00Z

KTYS Airport Details

Status Operational
Activation January 1970
Ownership Public
Usage Public
Chart ATLANTA
ATC on-site Yes
Beacon schedule sunset-sunrise
Beacon color clear green

KTYS Airport Contacts

Owner METRO KNOXVILLE ARPT AUTH
Owner address MC GHEE TYSON AIRPORT, ALCOA, TN 37901
Owner phone 865-342-3000
Manager JAMES FOUNTAIN
Manager address 367 HOSPITAL BLVD., JACKSON, TN 38305
Manager phone (731) 661-2093

KTYS Airport (Mc Ghee Tyson) Radio Frequencies

KTYS (Airport) Radio Frequencies

UNICOM 122.95
Common traffic advisory frequency (CTAF) N/A